createdAt,value
2023-04-08T00:01:43.395Z,8.95
2023-04-08T00:04:11.103Z,7.28
2023-04-08T00:06:39.120Z,9.48
2023-04-08T00:09:06.765Z,8.13
2023-04-08T00:11:34.450Z,7.15
2023-04-08T00:14:04.285Z,8.98
2023-04-08T00:16:32.048Z,10.32
2023-04-08T00:18:59.772Z,10.63
2023-04-08T00:21:27.460Z,5.95
2023-04-08T00:23:55.605Z,10.10
2023-04-08T00:26:23.265Z,8.52
2023-04-08T00:28:51.682Z,10.75
2023-04-08T00:31:21.083Z,10.65
2023-04-08T00:33:48.996Z,5.90
2023-04-08T00:36:16.734Z,8.10
2023-04-08T00:38:45.861Z,8.65
2023-04-08T00:41:13.897Z,12.52
2023-04-08T00:43:43.895Z,7.53
2023-04-08T00:46:11.861Z,9.70
2023-04-08T00:48:40.924Z,9.00
2023-04-08T00:51:09.076Z,7.38
2023-04-08T00:53:36.725Z,12.23
2023-04-08T00:56:04.582Z,10.70
2023-04-08T00:58:32.317Z,7.88
2023-04-08T01:01:03.193Z,10.63
2023-04-08T01:03:36.159Z,9.38
2023-04-08T01:06:08.635Z,8.85
2023-04-08T01:08:38.573Z,9.18
2023-04-08T01:11:07.226Z,8.70
2023-04-08T01:13:36.437Z,7.40
2023-04-08T01:16:04.105Z,7.82
2023-04-08T01:18:32.746Z,12.07
2023-04-08T01:21:01.410Z,10.07
2023-04-08T01:23:34.227Z,8.68
2023-04-08T01:26:03.228Z,7.80
2023-04-08T01:28:31.677Z,7.95
2023-04-08T01:31:00.330Z,10.85
2023-04-08T01:33:28.810Z,8.90
2023-04-08T01:35:57.839Z,10.48
2023-04-08T01:38:26.492Z,8.18
2023-04-08T01:40:54.396Z,7.35
2023-04-08T01:43:25.855Z,9.80
2023-04-08T01:45:58.160Z,8.95
2023-04-08T01:48:26.430Z,12.07
2023-04-08T01:50:54.906Z,8.15
2023-04-08T01:53:22.722Z,10.85
2023-04-08T01:55:53.163Z,8.57
2023-04-08T01:58:21.621Z,10.23
2023-04-08T02:00:51.404Z,6.65
2023-04-08T02:03:20.461Z,10.35
2023-04-08T02:05:48.380Z,6.93
2023-04-08T02:08:16.479Z,8.18
2023-04-08T02:10:44.312Z,8.38
2023-04-08T02:13:11.901Z,10.38
2023-04-08T02:15:41.432Z,6.65
2023-04-08T02:18:14.495Z,8.95
2023-04-08T02:20:44.695Z,11.90
2023-04-08T02:23:16.495Z,9.05
2023-04-08T02:25:45.504Z,9.45
2023-04-08T02:28:13.460Z,8.27
2023-04-08T02:30:43.557Z,9.27
2023-04-08T02:33:14.809Z,9.35
2023-04-08T02:35:43.101Z,7.93
2023-04-08T02:38:11.409Z,9.15
2023-04-08T02:40:41.304Z,6.78
2023-04-08T02:43:08.923Z,9.15
2023-04-08T02:45:40.434Z,11.05
2023-04-08T02:48:08.500Z,9.02
2023-04-08T02:50:37.660Z,11.25
2023-04-08T02:53:05.734Z,8.88
2023-04-08T02:55:34.327Z,8.82
2023-04-08T02:58:19.777Z,9.63
2023-04-08T03:00:47.464Z,7.78
2023-04-08T03:03:15.459Z,7.85
2023-04-08T03:05:44.444Z,10.02
2023-04-08T03:08:12.066Z,8.27
2023-04-08T03:10:40.448Z,5.47
2023-04-08T03:13:10.674Z,6.45
2023-04-08T03:15:38.362Z,7.30
2023-04-08T03:18:06.215Z,13.55
2023-04-08T03:20:34.190Z,9.35
2023-04-08T03:23:03.188Z,7.35
2023-04-08T03:25:31.708Z,9.40
2023-04-08T03:27:59.403Z,9.60
2023-04-08T03:30:27.301Z,8.98
2023-04-08T03:32:55.123Z,7.45
2023-04-08T03:35:22.922Z,10.07
2023-04-08T03:37:50.825Z,10.80
2023-04-08T03:40:20.046Z,9.52
2023-04-08T03:42:47.847Z,14.00
2023-04-08T03:45:15.597Z,16.83
2023-04-08T03:47:43.379Z,8.15
2023-04-08T03:50:11.964Z,13.45
2023-04-08T03:52:42.672Z,9.68
2023-04-08T03:55:10.673Z,12.95
2023-04-08T03:57:39.894Z,15.65
2023-04-08T04:00:09.122Z,10.73
2023-04-08T04:02:36.900Z,9.00
2023-04-08T04:05:05.158Z,11.90
2023-04-08T04:07:32.827Z,8.73
2023-04-08T04:10:00.448Z,13.15
2023-04-08T04:12:28.174Z,15.23
2023-04-08T04:14:57.176Z,10.10
2023-04-08T04:17:24.846Z,11.45
2023-04-08T04:19:52.835Z,9.93
2023-04-08T04:22:21.092Z,8.55
2023-04-08T04:24:49.592Z,7.85
2023-04-08T04:27:17.789Z,9.57
2023-04-08T04:29:45.572Z,13.68
2023-04-08T04:32:14.651Z,9.52
2023-04-08T04:34:42.286Z,6.43
2023-04-08T04:37:09.899Z,10.77
2023-04-08T04:39:37.656Z,9.25
2023-04-08T04:42:05.309Z,12.43
2023-04-08T04:44:33.139Z,13.43
2023-04-08T04:47:01.034Z,12.23
2023-04-08T04:49:29.991Z,12.88
2023-04-08T04:51:57.633Z,9.93
2023-04-08T04:54:26.087Z,9.38
2023-04-08T04:56:53.731Z,6.88
2023-04-08T04:59:22.668Z,13.73
2023-04-08T05:01:50.496Z,9.80
2023-04-08T05:04:18.305Z,10.90
2023-04-08T05:06:47.290Z,8.02
2023-04-08T05:09:14.975Z,11.20
2023-04-08T05:11:42.741Z,8.82
2023-04-08T05:14:10.440Z,11.10
2023-04-08T05:16:39.063Z,12.55
2023-04-08T05:19:06.699Z,14.70
2023-04-08T05:21:35.015Z,14.27
2023-04-08T05:24:04.346Z,10.05
2023-04-08T05:26:33.025Z,11.70
2023-04-08T05:29:00.785Z,13.70
2023-04-08T05:31:28.636Z,17.85
2023-04-08T05:33:56.348Z,13.73
2023-04-08T05:36:23.959Z,12.98
2023-04-08T05:38:51.851Z,16.63
2023-04-08T05:41:21.654Z,14.30
2023-04-08T05:43:50.103Z,10.30
2023-04-08T05:46:19.077Z,12.45
2023-04-08T05:48:46.916Z,12.00
2023-04-08T05:51:14.887Z,17.42
2023-04-08T05:53:42.576Z,14.55
2023-04-08T05:56:10.433Z,12.35
2023-04-08T05:58:39.545Z,10.07
2023-04-08T06:01:08.485Z,20.92
2023-04-08T06:03:36.291Z,9.77
2023-04-08T06:06:04.292Z,9.82
2023-04-08T06:08:32.016Z,12.82
2023-04-08T06:10:59.664Z,12.02
2023-04-08T06:13:27.436Z,11.18
2023-04-08T06:15:56.418Z,11.90
2023-04-08T06:18:24.059Z,14.88
2023-04-08T06:20:51.796Z,12.25
2023-04-08T06:23:19.543Z,16.42
2023-04-08T06:25:56.567Z,12.18
2023-04-08T06:28:24.291Z,13.82
2023-04-08T06:30:51.974Z,9.75
2023-04-08T06:33:21.121Z,11.23
2023-04-08T06:35:48.794Z,10.73
2023-04-08T06:38:16.530Z,11.52
2023-04-08T06:40:44.713Z,12.13
2023-04-08T06:43:12.346Z,12.80
2023-04-08T06:45:39.986Z,14.68
2023-04-08T06:48:09.473Z,13.55
2023-04-08T06:50:38.467Z,14.43
2023-04-08T06:53:06.186Z,12.15
2023-04-08T06:55:33.849Z,9.65
2023-04-08T06:58:02.236Z,11.23
2023-04-08T07:00:30.337Z,11.95
2023-04-08T07:03:12.606Z,11.35
2023-04-08T07:05:42.171Z,11.07
2023-04-08T07:08:10.092Z,11.15
2023-04-08T07:10:37.753Z,13.18
2023-04-08T07:13:05.478Z,16.95
2023-04-08T07:15:33.167Z,13.20
2023-04-08T07:18:00.877Z,11.10
2023-04-08T07:20:30.239Z,13.75
2023-04-08T07:23:00.643Z,12.23
2023-04-08T07:25:28.234Z,10.38
2023-04-08T07:27:57.236Z,10.68
2023-04-08T07:30:24.834Z,8.23
2023-04-08T07:32:55.775Z,8.82
2023-04-08T07:35:25.512Z,12.82
2023-04-08T07:37:53.256Z,10.23
2023-04-08T07:40:22.375Z,10.32
2023-04-08T07:42:49.997Z,11.55
2023-04-08T07:45:17.822Z,11.73
2023-04-08T07:47:45.617Z,8.68
2023-04-08T07:50:13.333Z,15.07
2023-04-08T07:52:41.085Z,10.70
2023-04-08T07:55:09.199Z,10.38
2023-04-08T07:57:38.235Z,12.00
2023-04-08T08:00:06.505Z,9.57
2023-04-08T08:02:35.196Z,11.23
2023-04-08T08:05:03.565Z,8.45
2023-04-08T08:07:31.410Z,8.13
2023-04-08T08:09:59.819Z,10.70
2023-04-08T08:12:27.462Z,9.95
2023-04-08T08:14:59.046Z,15.30
2023-04-08T08:17:31.157Z,14.15
2023-04-08T08:19:58.790Z,6.75
2023-04-08T08:22:27.076Z,12.70
2023-04-08T08:24:58.072Z,10.18
2023-04-08T08:27:25.899Z,14.73
2023-04-08T08:29:53.635Z,7.38
2023-04-08T08:32:22.632Z,9.10
2023-04-08T08:34:50.451Z,10.50
2023-04-08T08:37:18.096Z,10.52
2023-04-08T08:39:46.095Z,8.52
2023-04-08T08:42:21.731Z,7.57
2023-04-08T08:44:49.509Z,9.05
2023-04-08T08:47:17.173Z,8.60
2023-04-08T08:49:46.761Z,8.23
2023-04-08T08:52:17.183Z,9.05
2023-04-08T08:54:45.842Z,9.07
2023-04-08T08:57:20.031Z,8.35
2023-04-08T08:59:48.294Z,9.00
2023-04-08T09:02:26.890Z,9.57
2023-04-08T09:05:01.402Z,10.45
2023-04-08T09:07:31.153Z,9.93
2023-04-08T09:09:59.316Z,9.07
2023-04-08T09:12:29.544Z,8.07
2023-04-08T09:15:04.649Z,15.77
2023-04-08T09:17:35.815Z,8.93
2023-04-08T09:20:11.942Z,11.30
2023-04-08T09:22:58.919Z,10.43
2023-04-08T09:25:27.092Z,8.82
2023-04-08T09:27:54.782Z,9.75
2023-04-08T09:30:23.730Z,9.65
2023-04-08T09:32:51.908Z,8.70
2023-04-08T09:35:21.584Z,10.43
2023-04-08T09:37:49.983Z,8.32
2023-04-08T09:40:19.947Z,10.90
2023-04-08T09:42:50.698Z,11.05
2023-04-08T09:45:19.061Z,10.48
2023-04-08T09:47:56.970Z,11.90
2023-04-08T09:50:29.729Z,12.48
2023-04-08T09:53:01.736Z,14.40
2023-04-08T09:55:31.671Z,15.68
2023-04-08T09:58:00.680Z,12.13
2023-04-08T10:00:33.595Z,14.68
2023-04-08T10:03:07.181Z,9.20
2023-04-08T10:05:38.807Z,12.15
2023-04-08T10:08:07.054Z,10.27
2023-04-08T10:10:35.778Z,8.70
2023-04-08T10:13:03.746Z,11.52
2023-04-08T10:15:31.988Z,11.30
2023-04-08T10:18:14.934Z,11.98
2023-04-08T10:20:45.139Z,13.90
2023-04-08T10:23:14.777Z,12.85
2023-04-08T10:25:42.790Z,16.25
2023-04-08T10:28:28.068Z,12.05
2023-04-08T10:30:56.687Z,8.73
2023-04-08T10:33:26.390Z,9.85
2023-04-08T10:35:56.685Z,9.93
2023-04-08T10:38:24.432Z,9.18
2023-04-08T10:40:52.488Z,12.77
2023-04-08T10:43:20.891Z,12.52
2023-04-08T10:45:51.340Z,12.18
2023-04-08T10:48:19.976Z,20.30
2023-04-08T10:50:54.248Z,15.70
2023-04-08T10:53:26.837Z,16.98
2023-04-08T10:55:54.863Z,14.90
2023-04-08T10:58:22.822Z,14.15
2023-04-08T11:00:50.531Z,17.67
2023-04-08T11:03:18.401Z,14.15
2023-04-08T11:05:47.044Z,14.90
2023-04-08T11:08:14.700Z,15.50
2023-04-08T11:10:45.002Z,17.00
2023-04-08T11:13:12.813Z,17.23
2023-04-08T11:15:40.745Z,17.67
2023-04-08T11:18:09.534Z,18.10
2023-04-08T11:20:38.320Z,21.20
2023-04-08T11:23:05.957Z,23.52
2023-04-08T11:25:33.897Z,17.23
2023-04-08T11:28:03.195Z,23.15
2023-04-08T11:30:31.094Z,21.02
2023-04-08T11:32:59.008Z,21.00
2023-04-08T11:35:29.875Z,19.58
2023-04-08T11:37:57.963Z,21.38
2023-04-08T11:40:26.371Z,21.63
2023-04-08T11:42:54.340Z,22.65
2023-04-08T11:45:23.555Z,18.27
2023-04-08T11:47:51.212Z,18.33
2023-04-08T11:50:25.295Z,14.40
2023-04-08T11:52:55.324Z,15.68
2023-04-08T11:55:23.972Z,17.30
2023-04-08T11:57:52.779Z,12.70
2023-04-08T12:00:23.432Z,14.40
2023-04-08T12:02:53.883Z,10.00
2023-04-08T12:05:22.301Z,11.95
2023-04-08T12:07:49.963Z,13.57
2023-04-08T12:10:17.622Z,13.43
2023-04-08T12:12:45.377Z,8.98
2023-04-08T12:15:13.044Z,14.18
2023-04-08T12:17:40.783Z,11.05
2023-04-08T12:20:10.531Z,14.48
2023-04-08T12:22:39.053Z,16.88
2023-04-08T12:25:07.433Z,11.80
2023-04-08T12:27:35.048Z,12.32
2023-04-08T12:30:03.180Z,12.07
2023-04-08T12:32:30.927Z,14.90
2023-04-08T12:34:58.604Z,12.77
2023-04-08T12:37:27.874Z,12.20
2023-04-08T12:39:55.616Z,6.70
2023-04-08T12:42:23.347Z,10.20
2023-04-08T12:44:51.027Z,9.00
2023-04-08T12:47:19.191Z,10.07
2023-04-08T12:49:49.723Z,8.20
2023-04-08T12:52:18.922Z,9.75
2023-04-08T12:54:47.924Z,11.05
2023-04-08T12:57:15.550Z,11.85
2023-04-08T12:59:43.183Z,12.95
2023-04-08T13:02:11.017Z,10.77
2023-04-08T13:04:38.657Z,11.48
2023-04-08T13:07:07.655Z,9.35
2023-04-08T13:09:35.364Z,9.05
2023-04-08T13:12:04.899Z,10.00
2023-04-08T13:14:32.938Z,11.63
2023-04-08T13:17:01.464Z,12.32
2023-04-08T13:19:29.092Z,14.45
2023-04-08T13:21:57.482Z,14.52
2023-04-08T13:24:25.176Z,10.00
2023-04-08T13:26:52.781Z,13.43
2023-04-08T13:29:21.727Z,9.57
2023-04-08T13:31:49.414Z,12.13
2023-04-08T13:34:17.083Z,7.72
2023-04-08T13:36:44.725Z,9.15
2023-04-08T13:39:12.292Z,9.05
2023-04-08T13:41:39.978Z,12.73
2023-04-08T13:44:07.707Z,11.93
2023-04-08T13:46:36.722Z,10.60
2023-04-08T13:49:04.351Z,11.35
2023-04-08T13:51:31.957Z,13.05
2023-04-08T13:53:59.680Z,11.40
2023-04-08T13:56:35.187Z,10.32
2023-04-08T13:59:03.175Z,10.57
2023-04-08T14:01:32.039Z,12.70
2023-04-08T14:04:03.280Z,12.45
2023-04-08T14:06:31.176Z,10.70
2023-04-08T14:08:58.879Z,9.05
2023-04-08T14:11:26.528Z,12.40
2023-04-08T14:13:54.284Z,11.75
2023-04-08T14:16:22.101Z,13.60
2023-04-08T14:18:50.425Z,10.73
2023-04-08T14:21:19.688Z,10.63
2023-04-08T14:23:48.464Z,11.95
2023-04-08T14:26:16.407Z,13.20
2023-04-08T14:28:44.003Z,11.43
2023-04-08T14:31:15.835Z,9.82
2023-04-08T14:33:43.613Z,10.60
2023-04-08T14:36:11.580Z,11.52
2023-04-08T14:38:40.934Z,12.90
2023-04-08T14:41:10.395Z,9.70
2023-04-08T14:43:38.072Z,9.82
2023-04-08T14:46:05.765Z,8.63
2023-04-08T14:48:33.462Z,11.63
2023-04-08T14:51:01.123Z,11.23
2023-04-08T14:53:28.741Z,11.40
2023-04-08T14:55:57.729Z,6.75
2023-04-08T14:58:25.702Z,9.77
2023-04-08T15:00:53.525Z,9.05
2023-04-08T15:03:21.707Z,11.40
2023-04-08T15:05:50.047Z,8.88
2023-04-08T15:08:17.804Z,9.10
2023-04-08T15:10:45.601Z,9.52
2023-04-08T15:13:14.550Z,13.57
2023-04-08T15:15:42.485Z,14.32
2023-04-08T15:18:10.526Z,13.45
2023-04-08T15:20:38.860Z,13.32
2023-04-08T15:23:06.821Z,14.40
2023-04-08T15:25:34.492Z,13.70
2023-04-08T15:28:03.570Z,13.18
2023-04-08T15:30:35.499Z,14.45
2023-04-08T15:33:06.430Z,15.13
2023-04-08T15:35:34.120Z,13.07
2023-04-08T15:38:01.848Z,9.45
2023-04-08T15:40:29.547Z,14.23
2023-04-08T15:42:57.226Z,14.07
2023-04-08T15:45:24.922Z,13.55
2023-04-08T15:47:53.994Z,14.32
2023-04-08T15:50:21.838Z,17.27
2023-04-08T15:52:49.610Z,15.68
2023-04-08T15:55:17.922Z,15.23
2023-04-08T15:57:45.533Z,16.02
2023-04-08T16:00:16.124Z,15.23
2023-04-08T16:02:46.652Z,10.98
2023-04-08T16:05:16.113Z,14.25
2023-04-08T16:07:43.761Z,13.57
2023-04-08T16:10:11.786Z,13.90
2023-04-08T16:12:39.425Z,10.52
2023-04-08T16:15:08.405Z,13.73
2023-04-08T16:17:36.720Z,15.02
2023-04-08T16:20:05.043Z,14.50
2023-04-08T16:22:35.370Z,14.65
2023-04-08T16:25:03.107Z,13.25
2023-04-08T16:27:30.807Z,10.32
2023-04-08T16:29:58.511Z,16.75
2023-04-08T16:32:26.321Z,12.38
2023-04-08T16:34:54.017Z,16.70
2023-04-08T16:37:21.740Z,15.05
2023-04-08T16:39:50.726Z,15.02
2023-04-08T16:42:19.214Z,14.50
2023-04-08T16:44:46.957Z,15.13
2023-04-08T16:47:14.625Z,14.93
2023-04-08T16:49:42.288Z,15.25
2023-04-08T16:52:09.990Z,15.30
2023-04-08T16:54:39.914Z,15.00
2023-04-08T16:57:08.909Z,11.43
2023-04-08T16:59:36.510Z,11.48
2023-04-08T17:02:04.188Z,16.58
2023-04-08T17:04:33.608Z,18.13
2023-04-08T17:07:01.304Z,17.15
2023-04-08T17:09:29.324Z,20.52
2023-04-08T17:11:57.301Z,15.68
2023-04-08T17:14:27.747Z,20.30
2023-04-08T17:16:55.774Z,21.58
2023-04-08T17:19:23.483Z,20.48
2023-04-08T17:21:53.182Z,18.02
2023-04-08T17:24:21.469Z,14.98
2023-04-08T17:26:49.324Z,17.00
2023-04-08T17:29:17.069Z,14.43
2023-04-08T17:31:46.078Z,19.27
2023-04-08T17:34:13.754Z,19.45
2023-04-08T17:36:41.433Z,21.30
2023-04-08T17:39:09.184Z,21.70
2023-04-08T17:41:40.162Z,22.20
2023-04-08T17:44:08.878Z,21.70
2023-04-08T17:46:36.864Z,20.75
2023-04-08T17:49:05.846Z,18.45
2023-04-08T17:51:34.337Z,20.48
2023-04-08T17:54:01.939Z,17.42
2023-04-08T17:56:29.833Z,21.42
2023-04-08T17:58:57.739Z,27.60
2023-04-08T18:01:25.518Z,22.77
2023-04-08T18:03:53.496Z,25.90
2023-04-08T18:06:28.371Z,22.67
2023-04-08T18:08:56.132Z,27.60
2023-04-08T18:11:26.870Z,29.17
2023-04-08T18:13:56.021Z,29.83
2023-04-08T18:16:23.768Z,30.02
2023-04-08T18:18:51.460Z,37.83
2023-04-08T18:21:20.189Z,31.02
2023-04-08T18:23:50.546Z,28.88
2023-04-08T18:26:20.450Z,32.28
2023-04-08T18:28:48.129Z,35.47
2023-04-08T18:31:16.785Z,31.42
2023-04-08T18:33:44.773Z,34.50
2023-04-08T18:36:13.966Z,31.42
2023-04-08T18:38:41.868Z,31.77
2023-04-08T18:41:11.620Z,35.13
2023-04-08T18:43:39.508Z,37.50
2023-04-08T18:46:07.238Z,36.00
2023-04-08T18:48:35.013Z,36.45
2023-04-08T18:51:02.699Z,39.42
2023-04-08T18:53:30.751Z,38.70
2023-04-08T18:55:58.424Z,37.45
2023-04-08T18:58:28.274Z,36.88
2023-04-08T19:00:56.080Z,35.58
2023-04-08T19:03:23.924Z,36.33
2023-04-08T19:05:51.636Z,32.30
2023-04-08T19:08:19.255Z,42.47
2023-04-08T19:10:46.950Z,37.97
2023-04-08T19:13:15.531Z,37.92
2023-04-08T19:15:44.835Z,42.20
2023-04-08T19:18:12.527Z,36.20
2023-04-08T19:20:40.132Z,40.92
2023-04-08T19:23:09.322Z,40.67
2023-04-08T19:25:37.372Z,42.42
2023-04-08T19:28:06.090Z,40.78
2023-04-08T19:30:42.433Z,47.05
2023-04-08T19:33:12.007Z,48.13
2023-04-08T19:35:41.066Z,44.92
2023-04-08T19:38:09.098Z,40.15
2023-04-08T19:40:36.719Z,50.15
2023-04-08T19:43:07.906Z,38.47
2023-04-08T19:45:35.861Z,46.47
2023-04-08T19:48:04.639Z,49.63
2023-04-08T19:50:42.819Z,50.17
2023-04-08T19:53:11.322Z,46.90
2023-04-08T19:55:39.041Z,54.05
2023-04-08T19:58:07.121Z,54.13
2023-04-08T20:00:37.230Z,60.40
2023-04-08T20:03:05.221Z,56.92
2023-04-08T20:05:33.245Z,51.30
2023-04-08T20:08:02.634Z,65.68
2023-04-08T20:10:30.381Z,55.28
2023-04-08T20:12:58.024Z,59.72
2023-04-08T20:15:26.411Z,58.05
2023-04-08T20:17:54.214Z,57.10
2023-04-08T20:20:22.793Z,52.20
2023-04-08T20:22:50.828Z,69.22
2023-04-08T20:25:20.437Z,59.08
2023-04-08T20:27:48.182Z,66.43
2023-04-08T20:30:15.887Z,70.63
2023-04-08T20:32:43.547Z,70.60
2023-04-08T20:35:11.753Z,78.38
2023-04-08T20:37:39.437Z,86.15
2023-04-08T20:40:08.150Z,72.47
2023-04-08T20:42:38.557Z,78.00
2023-04-08T20:45:06.903Z,82.13
2023-04-08T20:47:34.989Z,71.72
2023-04-08T20:50:02.805Z,86.80
2023-04-08T20:52:30.504Z,76.28
2023-04-08T20:54:58.311Z,86.53
2023-04-08T20:57:25.969Z,73.60
2023-04-08T20:59:55.002Z,68.82
2023-04-08T21:02:22.987Z,69.40
2023-04-08T21:04:50.959Z,78.82
2023-04-08T21:07:18.652Z,78.55
2023-04-08T21:09:47.893Z,71.40
2023-04-08T21:12:15.643Z,83.60
2023-04-08T21:14:45.301Z,91.32
2023-04-08T21:17:16.387Z,84.50
2023-04-08T21:19:44.082Z,70.43
2023-04-08T21:22:11.902Z,81.55
2023-04-08T21:24:39.600Z,76.53
2023-04-08T21:27:07.441Z,93.68
2023-04-08T21:29:35.475Z,95.25
2023-04-08T21:32:03.349Z,86.70
2023-04-08T21:34:32.701Z,86.93
2023-04-08T21:37:00.558Z,83.75
2023-04-08T21:39:28.245Z,95.10
2023-04-08T21:41:55.906Z,100.63
2023-04-08T21:44:23.568Z,98.13
2023-04-08T21:46:51.218Z,91.90
2023-04-08T21:49:18.950Z,111.88
2023-04-08T21:51:47.950Z,104.75
2023-04-08T21:54:17.216Z,117.95
2023-04-08T21:56:51.966Z,107.53
2023-04-08T21:59:20.060Z,94.57
2023-04-08T22:01:48.009Z,77.88
2023-04-08T22:04:16.507Z,86.78
2023-04-08T22:06:44.684Z,95.78
2023-04-08T22:09:13.685Z,86.72
2023-04-08T22:11:41.378Z,99.63
2023-04-08T22:14:09.091Z,99.50
2023-04-08T22:16:36.813Z,96.82
2023-04-08T22:19:04.495Z,102.65
2023-04-08T22:21:34.116Z,96.30
2023-04-08T22:24:01.813Z,106.35
2023-04-08T22:26:31.133Z,109.25
2023-04-08T22:28:58.737Z,115.32
2023-04-08T22:31:26.406Z,100.32
2023-04-08T22:33:54.896Z,105.82
2023-04-08T22:36:27.195Z,103.78
2023-04-08T22:38:55.136Z,92.68
2023-04-08T22:41:23.662Z,115.30
2023-04-08T22:43:52.732Z,104.53
2023-04-08T22:46:20.623Z,106.30
2023-04-08T22:48:49.720Z,106.47
2023-04-08T22:51:17.541Z,116.47
2023-04-08T22:53:45.458Z,108.72
2023-04-08T22:56:13.474Z,109.47
2023-04-08T22:58:41.112Z,92.95
2023-04-08T23:01:13.793Z,107.78
2023-04-08T23:03:41.767Z,129.68
2023-04-08T23:06:09.523Z,93.15
2023-04-08T23:08:37.132Z,102.97
2023-04-08T23:11:04.777Z,100.65
2023-04-08T23:13:33.039Z,99.63
2023-04-08T23:16:01.415Z,88.75
2023-04-08T23:18:30.435Z,102.43
2023-04-08T23:20:58.453Z,103.90
2023-04-08T23:23:26.561Z,93.28
2023-04-08T23:25:55.693Z,100.00
2023-04-08T23:28:23.641Z,92.28
2023-04-08T23:30:51.301Z,99.15
2023-04-08T23:33:18.987Z,86.82
2023-04-08T23:35:48.180Z,90.13
2023-04-08T23:38:15.957Z,103.25
2023-04-08T23:40:43.626Z,101.55
2023-04-08T23:43:12.429Z,92.57
2023-04-08T23:45:40.055Z,100.53
2023-04-08T23:48:10.054Z,100.47
2023-04-08T23:50:37.965Z,95.53
2023-04-08T23:53:07.671Z,99.07
2023-04-08T23:55:35.366Z,89.75
2023-04-08T23:58:03.046Z,90.45
